sensor_id;sensor_type;location;lat;lon;timestamp;P1;durP1;ratioP1;P2;durP2;ratioP2
40637;SDS011;26336;44.696;10.622;2023-07-31T00:00:53;8.35;;;3.65;;
40637;SDS011;26336;44.696;10.622;2023-07-31T00:04:00;7.90;;;3.90;;
40637;SDS011;26336;44.696;10.622;2023-07-31T00:07:07;7.28;;;3.50;;
40637;SDS011;26336;44.696;10.622;2023-07-31T00:10:14;4.97;;;3.80;;
40637;SDS011;26336;44.696;10.622;2023-07-31T00:13:18;5.55;;;3.53;;
40637;SDS011;26336;44.696;10.622;2023-07-31T00:16:22;5.97;;;3.65;;
40637;SDS011;26336;44.696;10.622;2023-07-31T00:19:29;6.28;;;3.80;;
40637;SDS011;26336;44.696;10.622;2023-07-31T00:22:36;6.90;;;4.10;;
40637;SDS011;26336;44.696;10.622;2023-07-31T00:25:53;7.20;;;3.28;;
40637;SDS011;26336;44.696;10.622;2023-07-31T00:28:57;6.22;;;3.70;;
40637;SDS011;26336;44.696;10.622;2023-07-31T00:32:01;6.90;;;3.50;;
40637;SDS011;26336;44.696;10.622;2023-07-31T00:35:07;5.18;;;3.42;;
40637;SDS011;26336;44.696;10.622;2023-07-31T00:38:12;7.32;;;3.20;;
40637;SDS011;26336;44.696;10.622;2023-07-31T00:41:28;7.28;;;3.35;;
40637;SDS011;26336;44.696;10.622;2023-07-31T00:48:04;5.82;;;3.40;;
40637;SDS011;26336;44.696;10.622;2023-07-31T00:51:17;5.82;;;2.92;;
40637;SDS011;26336;44.696;10.622;2023-07-31T00:54:21;4.78;;;3.40;;
40637;SDS011;26336;44.696;10.622;2023-07-31T00:57:25;4.90;;;3.38;;
40637;SDS011;26336;44.696;10.622;2023-07-31T01:00:41;5.05;;;3.38;;
40637;SDS011;26336;44.696;10.622;2023-07-31T01:03:46;5.30;;;2.83;;
40637;SDS011;26336;44.696;10.622;2023-07-31T01:07:13;6.22;;;3.17;;
40637;SDS011;26336;44.696;10.622;2023-07-31T01:10:25;3.70;;;3.08;;
40637;SDS011;26336;44.696;10.622;2023-07-31T01:13:46;5.35;;;2.75;;
40637;SDS011;26336;44.696;10.622;2023-07-31T01:16:56;6.93;;;3.17;;
40637;SDS011;26336;44.696;10.622;2023-07-31T01:20:01;6.65;;;2.60;;
40637;SDS011;26336;44.696;10.622;2023-07-31T01:23:22;5.82;;;2.88;;
40637;SDS011;26336;44.696;10.622;2023-07-31T01:26:45;3.50;;;2.60;;
40637;SDS011;26336;44.696;10.622;2023-07-31T01:30:00;5.47;;;3.38;;
40637;SDS011;26336;44.696;10.622;2023-07-31T01:33:07;6.07;;;3.33;;
40637;SDS011;26336;44.696;10.622;2023-07-31T01:36:12;4.82;;;3.38;;
40637;SDS011;26336;44.696;10.622;2023-07-31T01:39:16;3.63;;;2.40;;
40637;SDS011;26336;44.696;10.622;2023-07-31T01:42:24;4.95;;;2.47;;
40637;SDS011;26336;44.696;10.622;2023-07-31T01:45:28;4.25;;;2.55;;
40637;SDS011;26336;44.696;10.622;2023-07-31T01:48:35;5.43;;;3.20;;
40637;SDS011;26336;44.696;10.622;2023-07-31T01:51:39;5.72;;;3.15;;
40637;SDS011;26336;44.696;10.622;2023-07-31T01:54:45;3.65;;;3.03;;
40637;SDS011;26336;44.696;10.622;2023-07-31T01:57:48;4.63;;;3.17;;
40637;SDS011;26336;44.696;10.622;2023-07-31T02:00:52;5.10;;;2.88;;
40637;SDS011;26336;44.696;10.622;2023-07-31T02:03:56;6.57;;;3.38;;
40637;SDS011;26336;44.696;10.622;2023-07-31T02:07:01;3.80;;;3.22;;
40637;SDS011;26336;44.696;10.622;2023-07-31T02:10:05;6.18;;;4.32;;
40637;SDS011;26336;44.696;10.622;2023-07-31T02:13:09;7.38;;;4.10;;
40637;SDS011;26336;44.696;10.622;2023-07-31T02:16:13;6.72;;;4.60;;
40637;SDS011;26336;44.696;10.622;2023-07-31T02:19:17;4.40;;;4.00;;
40637;SDS011;26336;44.696;10.622;2023-07-31T02:22:21;5.80;;;4.15;;
40637;SDS011;26336;44.696;10.622;2023-07-31T02:25:25;5.90;;;4.32;;
40637;SDS011;26336;44.696;10.622;2023-07-31T02:28:29;5.45;;;4.20;;
40637;SDS011;26336;44.696;10.622;2023-07-31T02:31:34;5.18;;;4.43;;
40637;SDS011;26336;44.696;10.622;2023-07-31T02:34:38;5.55;;;4.45;;
40637;SDS011;26336;44.696;10.622;2023-07-31T02:37:45;5.80;;;4.43;;
40637;SDS011;26336;44.696;10.622;2023-07-31T02:40:49;5.88;;;5.25;;
40637;SDS011;26336;44.696;10.622;2023-07-31T02:43:53;6.82;;;4.68;;
40637;SDS011;26336;44.696;10.622;2023-07-31T02:46:57;5.30;;;4.70;;
40637;SDS011;26336;44.696;10.622;2023-07-31T02:50:02;5.78;;;4.78;;
40637;SDS011;26336;44.696;10.622;2023-07-31T02:53:09;6.20;;;4.38;;
40637;SDS011;26336;44.696;10.622;2023-07-31T02:56:13;6.05;;;4.10;;
40637;SDS011;26336;44.696;10.622;2023-07-31T02:59:17;5.00;;;4.35;;
40637;SDS011;26336;44.696;10.622;2023-07-31T03:02:22;4.75;;;3.97;;
40637;SDS011;26336;44.696;10.622;2023-07-31T03:05:26;4.47;;;4.05;;
40637;SDS011;26336;44.696;10.622;2023-07-31T03:08:30;6.28;;;4.47;;
40637;SDS011;26336;44.696;10.622;2023-07-31T03:11:35;4.80;;;4.40;;
40637;SDS011;26336;44.696;10.622;2023-07-31T03:14:38;6.75;;;4.55;;
40637;SDS011;26336;44.696;10.622;2023-07-31T03:17:42;7.13;;;4.18;;
40637;SDS011;26336;44.696;10.622;2023-07-31T03:20:46;5.03;;;3.65;;
40637;SDS011;26336;44.696;10.622;2023-07-31T03:23:50;4.55;;;3.25;;
40637;SDS011;26336;44.696;10.622;2023-07-31T03:26:57;6.78;;;3.85;;
40637;SDS011;26336;44.696;10.622;2023-07-31T03:30:02;3.78;;;3.40;;
40637;SDS011;26336;44.696;10.622;2023-07-31T03:33:08;4.13;;;3.42;;
40637;SDS011;26336;44.696;10.622;2023-07-31T03:36:12;5.38;;;3.47;;
40637;SDS011;26336;44.696;10.622;2023-07-31T03:39:16;4.00;;;3.60;;
40637;SDS011;26336;44.696;10.622;2023-07-31T03:42:20;5.43;;;3.50;;
40637;SDS011;26336;44.696;10.622;2023-07-31T03:45:24;5.75;;;3.67;;
40637;SDS011;26336;44.696;10.622;2023-07-31T03:48:28;5.45;;;4.05;;
40637;SDS011;26336;44.696;10.622;2023-07-31T03:51:32;3.85;;;3.42;;
40637;SDS011;26336;44.696;10.622;2023-07-31T03:54:36;4.45;;;3.95;;
40637;SDS011;26336;44.696;10.622;2023-07-31T03:57:40;4.32;;;3.58;;
40637;SDS011;26336;44.696;10.622;2023-07-31T04:00:45;6.13;;;4.18;;
40637;SDS011;26336;44.696;10.622;2023-07-31T04:03:49;5.85;;;3.95;;
40637;SDS011;26336;44.696;10.622;2023-07-31T04:06:53;4.25;;;3.67;;
40637;SDS011;26336;44.696;10.622;2023-07-31T04:09:57;4.82;;;3.58;;
40637;SDS011;26336;44.696;10.622;2023-07-31T04:13:01;6.18;;;3.88;;
40637;SDS011;26336;44.696;10.622;2023-07-31T04:16:05;5.78;;;3.80;;
40637;SDS011;26336;44.696;10.622;2023-07-31T04:19:09;5.55;;;3.75;;
40637;SDS011;26336;44.696;10.622;2023-07-31T04:22:17;3.97;;;3.60;;
40637;SDS011;26336;44.696;10.622;2023-07-31T04:25:21;4.05;;;3.65;;
40637;SDS011;26336;44.696;10.622;2023-07-31T04:28:25;6.88;;;3.50;;
40637;SDS011;26336;44.696;10.622;2023-07-31T04:31:29;4.32;;;3.90;;
40637;SDS011;26336;44.696;10.622;2023-07-31T04:34:33;5.70;;;3.92;;
40637;SDS011;26336;44.696;10.622;2023-07-31T04:37:37;4.18;;;3.78;;
40637;SDS011;26336;44.696;10.622;2023-07-31T04:40:42;4.78;;;3.75;;
40637;SDS011;26336;44.696;10.622;2023-07-31T04:43:46;6.53;;;3.80;;
40637;SDS011;26336;44.696;10.622;2023-07-31T04:46:50;7.00;;;4.55;;
40637;SDS011;26336;44.696;10.622;2023-07-31T04:49:54;5.43;;;3.80;;
40637;SDS011;26336;44.696;10.622;2023-07-31T04:52:58;5.32;;;3.80;;
40637;SDS011;26336;44.696;10.622;2023-07-31T04:56:03;5.10;;;3.97;;
40637;SDS011;26336;44.696;10.622;2023-07-31T04:59:07;4.75;;;4.32;;
40637;SDS011;26336;44.696;10.622;2023-07-31T05:02:11;4.85;;;4.03;;
40637;SDS011;26336;44.696;10.622;2023-07-31T05:05:17;7.72;;;4.03;;
40637;SDS011;26336;44.696;10.622;2023-07-31T05:08:21;7.18;;;4.28;;
40637;SDS011;26336;44.696;10.622;2023-07-31T05:11:25;5.15;;;4.22;;
40637;SDS011;26336;44.696;10.622;2023-07-31T05:14:28;7.00;;;4.00;;
40637;SDS011;26336;44.696;10.622;2023-07-31T05:17:32;4.95;;;3.58;;
40637;SDS011;26336;44.696;10.622;2023-07-31T05:20:36;5.97;;;4.75;;
40637;SDS011;26336;44.696;10.622;2023-07-31T05:23:40;5.55;;;4.80;;
40637;SDS011;26336;44.696;10.622;2023-07-31T05:26:44;7.15;;;5.22;;
40637;SDS011;26336;44.696;10.622;2023-07-31T05:29:48;5.18;;;4.55;;
40637;SDS011;26336;44.696;10.622;2023-07-31T05:32:52;8.32;;;4.68;;
40637;SDS011;26336;44.696;10.622;2023-07-31T05:35:57;7.13;;;5.15;;
40637;SDS011;26336;44.696;10.622;2023-07-31T05:39:04;7.15;;;5.35;;
40637;SDS011;26336;44.696;10.622;2023-07-31T05:42:11;6.28;;;5.25;;
40637;SDS011;26336;44.696;10.622;2023-07-31T05:45:16;6.75;;;4.95;;
40637;SDS011;26336;44.696;10.622;2023-07-31T05:48:19;8.63;;;5.75;;
40637;SDS011;26336;44.696;10.622;2023-07-31T05:51:23;8.18;;;6.22;;
40637;SDS011;26336;44.696;10.622;2023-07-31T05:54:27;8.32;;;5.90;;
40637;SDS011;26336;44.696;10.622;2023-07-31T05:57:31;10.05;;;7.70;;
40637;SDS011;26336;44.696;10.622;2023-07-31T06:00:35;9.13;;;7.38;;
40637;SDS011;26336;44.696;10.622;2023-07-31T06:03:39;11.15;;;7.35;;
40637;SDS011;26336;44.696;10.622;2023-07-31T06:06:43;10.10;;;6.35;;
40637;SDS011;26336;44.696;10.622;2023-07-31T06:09:47;8.00;;;5.75;;
40637;SDS011;26336;44.696;10.622;2023-07-31T06:12:52;7.93;;;5.65;;
40637;SDS011;26336;44.696;10.622;2023-07-31T06:15:57;7.47;;;6.07;;
40637;SDS011;26336;44.696;10.622;2023-07-31T06:19:02;5.95;;;4.80;;
40637;SDS011;26336;44.696;10.622;2023-07-31T06:22:06;11.57;;;6.13;;
40637;SDS011;26336;44.696;10.622;2023-07-31T06:25:10;11.82;;;7.05;;
40637;SDS011;26336;44.696;10.622;2023-07-31T06:28:15;8.65;;;6.93;;
40637;SDS011;26336;44.696;10.622;2023-07-31T06:31:19;9.25;;;6.60;;
40637;SDS011;26336;44.696;10.622;2023-07-31T06:34:26;14.63;;;7.35;;
40637;SDS011;26336;44.696;10.622;2023-07-31T06:37:30;12.82;;;6.03;;
40637;SDS011;26336;44.696;10.622;2023-07-31T06:40:34;7.97;;;6.32;;
40637;SDS011;26336;44.696;10.622;2023-07-31T06:43:38;11.65;;;7.97;;
40637;SDS011;26336;44.696;10.622;2023-07-31T06:46:42;7.22;;;4.53;;
40637;SDS011;26336;44.696;10.622;2023-07-31T06:49:47;14.55;;;7.45;;
40637;SDS011;26336;44.696;10.622;2023-07-31T06:52:51;8.20;;;5.15;;
40637;SDS011;26336;44.696;10.622;2023-07-31T06:56:01;43.97;;;7.80;;
40637;SDS011;26336;44.696;10.622;2023-07-31T06:59:05;11.43;;;5.90;;
40637;SDS011;26336;44.696;10.622;2023-07-31T07:02:09;8.23;;;5.63;;
40637;SDS011;26336;44.696;10.622;2023-07-31T07:05:14;9.02;;;5.38;;
40637;SDS011;26336;44.696;10.622;2023-07-31T07:08:19;7.32;;;4.78;;
40637;SDS011;26336;44.696;10.622;2023-07-31T07:11:23;8.38;;;6.13;;
40637;SDS011;26336;44.696;10.622;2023-07-31T07:14:27;9.18;;;6.40;;
40637;SDS011;26336;44.696;10.622;2023-07-31T07:17:31;8.73;;;5.97;;
40637;SDS011;26336;44.696;10.622;2023-07-31T07:20:35;8.13;;;5.85;;
40637;SDS011;26336;44.696;10.622;2023-07-31T07:23:39;8.02;;;6.03;;
40637;SDS011;26336;44.696;10.622;2023-07-31T07:26:43;8.30;;;6.00;;
40637;SDS011;26336;44.696;10.622;2023-07-31T07:29:53;5.10;;;4.25;;
40637;SDS011;26336;44.696;10.622;2023-07-31T07:32:57;8.23;;;4.28;;
40637;SDS011;26336;44.696;10.622;2023-07-31T07:36:01;6.38;;;4.10;;
40637;SDS011;26336;44.696;10.622;2023-07-31T07:39:08;5.65;;;4.15;;
40637;SDS011;26336;44.696;10.622;2023-07-31T07:42:13;6.82;;;4.00;;
40637;SDS011;26336;44.696;10.622;2023-07-31T07:45:17;6.65;;;3.20;;
40637;SDS011;26336;44.696;10.622;2023-07-31T07:48:21;6.63;;;4.30;;
40637;SDS011;26336;44.696;10.622;2023-07-31T07:51:25;5.47;;;3.97;;
40637;SDS011;26336;44.696;10.622;2023-07-31T07:54:29;6.45;;;4.07;;
40637;SDS011;26336;44.696;10.622;2023-07-31T07:57:34;7.03;;;4.68;;
40637;SDS011;26336;44.696;10.622;2023-07-31T08:00:38;5.65;;;3.88;;
40637;SDS011;26336;44.696;10.622;2023-07-31T08:03:42;9.73;;;4.32;;
40637;SDS011;26336;44.696;10.622;2023-07-31T08:06:47;9.07;;;5.72;;
40637;SDS011;26336;44.696;10.622;2023-07-31T08:09:51;7.95;;;5.43;;
40637;SDS011;26336;44.696;10.622;2023-07-31T08:12:56;5.20;;;3.40;;
40637;SDS011;26336;44.696;10.622;2023-07-31T08:16:00;5.82;;;3.58;;
40637;SDS011;26336;44.696;10.622;2023-07-31T08:19:04;6.43;;;3.97;;
40637;SDS011;26336;44.696;10.622;2023-07-31T08:22:08;5.78;;;4.43;;
40637;SDS011;26336;44.696;10.622;2023-07-31T08:25:11;8.82;;;4.63;;
40637;SDS011;26336;44.696;10.622;2023-07-31T08:28:15;7.43;;;4.43;;
40637;SDS011;26336;44.696;10.622;2023-07-31T08:31:20;6.80;;;4.43;;
40637;SDS011;26336;44.696;10.622;2023-07-31T08:34:23;6.45;;;4.07;;
40637;SDS011;26336;44.696;10.622;2023-07-31T08:37:28;8.95;;;3.70;;
40637;SDS011;26336;44.696;10.622;2023-07-31T08:40:35;5.25;;;3.15;;
40637;SDS011;26336;44.696;10.622;2023-07-31T08:43:41;3.90;;;2.80;;
40637;SDS011;26336;44.696;10.622;2023-07-31T08:46:46;2.38;;;1.98;;
40637;SDS011;26336;44.696;10.622;2023-07-31T08:49:52;2.17;;;1.95;;
40637;SDS011;26336;44.696;10.622;2023-07-31T08:52:57;4.57;;;2.70;;
40637;SDS011;26336;44.696;10.622;2023-07-31T08:56:01;4.07;;;2.30;;
40637;SDS011;26336;44.696;10.622;2023-07-31T08:59:06;4.30;;;2.05;;
40637;SDS011;26336;44.696;10.622;2023-07-31T09:02:12;4.03;;;2.30;;
40637;SDS011;26336;44.696;10.622;2023-07-31T09:05:18;2.45;;;1.85;;
40637;SDS011;26336;44.696;10.622;2023-07-31T09:08:23;2.25;;;2.05;;
40637;SDS011;26336;44.696;10.622;2023-07-31T09:11:30;4.20;;;2.10;;
40637;SDS011;26336;44.696;10.622;2023-07-31T09:14:34;2.83;;;2.20;;
40637;SDS011;26336;44.696;10.622;2023-07-31T09:17:40;2.33;;;2.10;;
40637;SDS011;26336;44.696;10.622;2023-07-31T09:20:44;2.45;;;1.92;;
40637;SDS011;26336;44.696;10.622;2023-07-31T09:23:49;5.22;;;2.50;;
40637;SDS011;26336;44.696;10.622;2023-07-31T09:26:56;4.03;;;2.38;;
40637;SDS011;26336;44.696;10.622;2023-07-31T09:30:04;5.32;;;2.30;;
40637;SDS011;26336;44.696;10.622;2023-07-31T09:33:09;6.32;;;2.55;;
40637;SDS011;26336;44.696;10.622;2023-07-31T09:36:13;3.35;;;2.53;;
40637;SDS011;26336;44.696;10.622;2023-07-31T09:39:17;3.60;;;2.78;;
40637;SDS011;26336;44.696;10.622;2023-07-31T09:42:26;4.60;;;3.03;;
40637;SDS011;26336;44.696;10.622;2023-07-31T09:45:33;3.97;;;2.42;;
40637;SDS011;26336;44.696;10.622;2023-07-31T09:48:40;2.90;;;2.50;;
40637;SDS011;26336;44.696;10.622;2023-07-31T09:51:44;3.88;;;3.00;;
40637;SDS011;26336;44.696;10.622;2023-07-31T09:54:48;3.28;;;2.20;;
40637;SDS011;26336;44.696;10.622;2023-07-31T09:57:52;4.35;;;2.75;;
40637;SDS011;26336;44.696;10.622;2023-07-31T10:00:58;6.05;;;3.22;;
40637;SDS011;26336;44.696;10.622;2023-07-31T10:04:03;4.03;;;2.47;;
40637;SDS011;26336;44.696;10.622;2023-07-31T10:07:08;3.58;;;2.65;;
40637;SDS011;26336;44.696;10.622;2023-07-31T10:10:13;3.30;;;2.50;;
40637;SDS011;26336;44.696;10.622;2023-07-31T10:13:18;3.92;;;3.15;;
40637;SDS011;26336;44.696;10.622;2023-07-31T10:16:25;3.30;;;2.90;;
40637;SDS011;26336;44.696;10.622;2023-07-31T10:19:33;3.25;;;2.55;;
40637;SDS011;26336;44.696;10.622;2023-07-31T10:22:44;3.55;;;2.28;;
40637;SDS011;26336;44.696;10.622;2023-07-31T10:25:53;3.47;;;2.63;;
40637;SDS011;26336;44.696;10.622;2023-07-31T10:28:58;6.72;;;2.97;;
40637;SDS011;26336;44.696;10.622;2023-07-31T10:32:02;3.40;;;3.10;;
40637;SDS011;26336;44.696;10.622;2023-07-31T10:35:10;3.35;;;2.58;;
40637;SDS011;26336;44.696;10.622;2023-07-31T10:38:16;1.98;;;1.83;;
40637;SDS011;26336;44.696;10.622;2023-07-31T10:41:20;4.28;;;2.28;;
40637;SDS011;26336;44.696;10.622;2023-07-31T10:44:34;2.88;;;2.20;;
40637;SDS011;26336;44.696;10.622;2023-07-31T10:47:44;3.15;;;2.50;;
40637;SDS011;26336;44.696;10.622;2023-07-31T10:50:50;3.22;;;2.45;;
40637;SDS011;26336;44.696;10.622;2023-07-31T10:54:06;4.30;;;2.38;;
40637;SDS011;26336;44.696;10.622;2023-07-31T10:57:21;4.78;;;2.67;;
40637;SDS011;26336;44.696;10.622;2023-07-31T11:00:28;2.47;;;2.28;;
40637;SDS011;26336;44.696;10.622;2023-07-31T11:03:43;3.70;;;2.45;;
40637;SDS011;26336;44.696;10.622;2023-07-31T11:07:01;2.53;;;2.10;;
40637;SDS011;26336;44.696;10.622;2023-07-31T11:10:08;4.30;;;2.70;;
40637;SDS011;26336;44.696;10.622;2023-07-31T11:13:12;6.68;;;2.85;;
40637;SDS011;26336;44.696;10.622;2023-07-31T11:16:20;4.82;;;2.65;;
40637;SDS011;26336;44.696;10.622;2023-07-31T11:19:27;4.20;;;2.75;;
40637;SDS011;26336;44.696;10.622;2023-07-31T11:22:31;5.90;;;2.78;;
40637;SDS011;26336;44.696;10.622;2023-07-31T11:25:40;4.18;;;2.65;;
40637;SDS011;26336;44.696;10.622;2023-07-31T11:28:48;5.13;;;2.47;;
40637;SDS011;26336;44.696;10.622;2023-07-31T11:31:58;13.57;;;3.33;;
40637;SDS011;26336;44.696;10.622;2023-07-31T11:35:11;2.60;;;2.28;;
40637;SDS011;26336;44.696;10.622;2023-07-31T11:41:30;2.88;;;2.00;;
40637;SDS011;26336;44.696;10.622;2023-07-31T11:44:38;2.72;;;2.13;;
40637;SDS011;26336;44.696;10.622;2023-07-31T11:47:45;2.50;;;2.30;;
40637;SDS011;26336;44.696;10.622;2023-07-31T11:50:51;3.72;;;2.22;;
40637;SDS011;26336;44.696;10.622;2023-07-31T11:53:57;2.65;;;2.05;;
40637;SDS011;26336;44.696;10.622;2023-07-31T11:57:03;2.60;;;2.03;;
40637;SDS011;26336;44.696;10.622;2023-07-31T12:00:09;2.45;;;2.00;;
40637;SDS011;26336;44.696;10.622;2023-07-31T12:03:21;3.53;;;2.30;;
40637;SDS011;26336;44.696;10.622;2023-07-31T12:06:32;2.78;;;2.05;;
40637;SDS011;26336;44.696;10.622;2023-07-31T12:09:38;3.08;;;2.20;;
40637;SDS011;26336;44.696;10.622;2023-07-31T12:12:42;4.60;;;2.53;;
40637;SDS011;26336;44.696;10.622;2023-07-31T12:15:46;5.63;;;2.85;;
40637;SDS011;26336;44.696;10.622;2023-07-31T12:18:52;4.82;;;2.95;;
40637;SDS011;26336;44.696;10.622;2023-07-31T12:21:56;2.35;;;1.90;;
40637;SDS011;26336;44.696;10.622;2023-07-31T12:25:04;6.70;;;2.60;;
40637;SDS011;26336;44.696;10.622;2023-07-31T12:28:09;4.70;;;2.53;;
40637;SDS011;26336;44.696;10.622;2023-07-31T12:31:17;7.95;;;2.40;;
40637;SDS011;26336;44.696;10.622;2023-07-31T12:34:24;3.90;;;2.50;;
40637;SDS011;26336;44.696;10.622;2023-07-31T12:37:32;3.95;;;2.20;;
40637;SDS011;26336;44.696;10.622;2023-07-31T12:40:40;2.08;;;1.92;;
40637;SDS011;26336;44.696;10.622;2023-07-31T12:43:45;2.72;;;2.30;;
40637;SDS011;26336;44.696;10.622;2023-07-31T12:46:49;2.88;;;2.20;;
40637;SDS011;26336;44.696;10.622;2023-07-31T12:49:56;2.97;;;1.83;;
40637;SDS011;26336;44.696;10.622;2023-07-31T12:53:00;5.38;;;2.40;;
40637;SDS011;26336;44.696;10.622;2023-07-31T12:56:03;3.50;;;2.20;;
40637;SDS011;26336;44.696;10.622;2023-07-31T12:59:08;4.05;;;2.28;;
40637;SDS011;26336;44.696;10.622;2023-07-31T13:02:12;3.70;;;2.47;;
40637;SDS011;26336;44.696;10.622;2023-07-31T13:05:17;3.65;;;2.42;;
40637;SDS011;26336;44.696;10.622;2023-07-31T13:08:25;2.38;;;1.98;;
40637;SDS011;26336;44.696;10.622;2023-07-31T13:11:35;3.30;;;2.20;;
40637;SDS011;26336;44.696;10.622;2023-07-31T13:14:38;3.40;;;2.33;;
40637;SDS011;26336;44.696;10.622;2023-07-31T13:17:42;2.60;;;2.20;;
40637;SDS011;26336;44.696;10.622;2023-07-31T13:20:46;6.03;;;2.30;;
40637;SDS011;26336;44.696;10.622;2023-07-31T13:23:50;4.60;;;2.40;;
40637;SDS011;26336;44.696;10.622;2023-07-31T13:26:55;5.38;;;2.53;;
40637;SDS011;26336;44.696;10.622;2023-07-31T13:30:00;2.83;;;2.08;;
40637;SDS011;26336;44.696;10.622;2023-07-31T13:33:07;3.47;;;2.60;;
40637;SDS011;26336;44.696;10.622;2023-07-31T13:36:14;4.82;;;2.67;;
40637;SDS011;26336;44.696;10.622;2023-07-31T13:39:18;2.53;;;2.33;;
40637;SDS011;26336;44.696;10.622;2023-07-31T13:42:22;3.40;;;2.60;;
40637;SDS011;26336;44.696;10.622;2023-07-31T13:45:26;6.70;;;2.97;;
40637;SDS011;26336;44.696;10.622;2023-07-31T13:48:30;7.00;;;2.30;;
40637;SDS011;26336;44.696;10.622;2023-07-31T13:51:40;4.00;;;2.65;;
40637;SDS011;26336;44.696;10.622;2023-07-31T13:54:44;3.17;;;2.58;;
40637;SDS011;26336;44.696;10.622;2023-07-31T13:57:47;3.35;;;2.50;;
40637;SDS011;26336;44.696;10.622;2023-07-31T14:00:51;3.38;;;2.80;;
40637;SDS011;26336;44.696;10.622;2023-07-31T14:03:56;4.65;;;2.80;;
40637;SDS011;26336;44.696;10.622;2023-07-31T14:07:00;3.08;;;2.70;;
40637;SDS011;26336;44.696;10.622;2023-07-31T14:10:07;3.50;;;2.40;;
40637;SDS011;26336;44.696;10.622;2023-07-31T14:13:11;4.93;;;2.55;;
40637;SDS011;26336;44.696;10.622;2023-07-31T14:16:20;3.85;;;2.60;;
40637;SDS011;26336;44.696;10.622;2023-07-31T14:19:23;5.60;;;2.33;;
40637;SDS011;26336;44.696;10.622;2023-07-31T14:22:35;3.00;;;2.70;;
40637;SDS011;26336;44.696;10.622;2023-07-31T14:25:41;3.30;;;2.38;;
40637;SDS011;26336;44.696;10.622;2023-07-31T14:28:45;3.58;;;2.97;;
40637;SDS011;26336;44.696;10.622;2023-07-31T14:31:51;3.45;;;2.53;;
40637;SDS011;26336;44.696;10.622;2023-07-31T14:34:55;6.28;;;2.70;;
40637;SDS011;26336;44.696;10.622;2023-07-31T14:38:00;3.97;;;2.47;;
40637;SDS011;26336;44.696;10.622;2023-07-31T14:41:04;2.42;;;2.17;;
40637;SDS011;26336;44.696;10.622;2023-07-31T14:44:08;3.60;;;2.35;;
40637;SDS011;26336;44.696;10.622;2023-07-31T14:47:12;2.67;;;2.25;;
40637;SDS011;26336;44.696;10.622;2023-07-31T14:50:16;2.53;;;2.33;;
40637;SDS011;26336;44.696;10.622;2023-07-31T14:53:21;4.20;;;2.60;;
40637;SDS011;26336;44.696;10.622;2023-07-31T14:56:28;9.10;;;4.57;;
40637;SDS011;26336;44.696;10.622;2023-07-31T14:59:32;6.05;;;4.18;;
40637;SDS011;26336;44.696;10.622;2023-07-31T15:02:45;11.30;;;8.50;;
40637;SDS011;26336;44.696;10.622;2023-07-31T15:05:49;5.18;;;4.32;;
40637;SDS011;26336;44.696;10.622;2023-07-31T15:08:53;3.00;;;2.50;;
40637;SDS011;26336;44.696;10.622;2023-07-31T15:11:57;3.53;;;2.38;;
40637;SDS011;26336;44.696;10.622;2023-07-31T15:15:01;2.92;;;2.50;;
40637;SDS011;26336;44.696;10.622;2023-07-31T15:18:05;5.38;;;2.55;;
40637;SDS011;26336;44.696;10.622;2023-07-31T15:21:13;3.65;;;2.50;;
40637;SDS011;26336;44.696;10.622;2023-07-31T15:24:18;3.63;;;2.70;;
40637;SDS011;26336;44.696;10.622;2023-07-31T15:27:24;3.20;;;2.72;;
40637;SDS011;26336;44.696;10.622;2023-07-31T15:30:28;3.63;;;2.38;;
40637;SDS011;26336;44.696;10.622;2023-07-31T15:33:33;3.20;;;2.45;;
40637;SDS011;26336;44.696;10.622;2023-07-31T15:36:37;4.05;;;2.88;;
40637;SDS011;26336;44.696;10.622;2023-07-31T15:39:41;4.45;;;2.60;;
40637;SDS011;26336;44.696;10.622;2023-07-31T15:42:45;4.55;;;2.45;;
40637;SDS011;26336;44.696;10.622;2023-07-31T15:45:52;2.80;;;2.60;;
40637;SDS011;26336;44.696;10.622;2023-07-31T15:48:59;4.93;;;2.83;;
40637;SDS011;26336;44.696;10.622;2023-07-31T15:52:03;4.03;;;2.63;;
40637;SDS011;26336;44.696;10.622;2023-07-31T15:55:08;2.67;;;2.45;;
40637;SDS011;26336;44.696;10.622;2023-07-31T15:58:13;4.45;;;2.53;;
40637;SDS011;26336;44.696;10.622;2023-07-31T16:01:16;3.67;;;2.50;;
40637;SDS011;26336;44.696;10.622;2023-07-31T16:04:21;3.42;;;2.70;;
40637;SDS011;26336;44.696;10.622;2023-07-31T16:07:25;4.85;;;2.25;;
40637;SDS011;26336;44.696;10.622;2023-07-31T16:10:30;4.57;;;2.90;;
40637;SDS011;26336;44.696;10.622;2023-07-31T16:13:35;4.28;;;2.58;;
40637;SDS011;26336;44.696;10.622;2023-07-31T16:16:39;2.90;;;2.42;;
40637;SDS011;26336;44.696;10.622;2023-07-31T16:19:43;4.28;;;2.22;;
40637;SDS011;26336;44.696;10.622;2023-07-31T16:22:51;3.88;;;2.30;;
40637;SDS011;26336;44.696;10.622;2023-07-31T16:25:55;2.83;;;2.20;;
40637;SDS011;26336;44.696;10.622;2023-07-31T16:28:59;3.03;;;2.10;;
40637;SDS011;26336;44.696;10.622;2023-07-31T16:32:03;3.92;;;2.10;;
40637;SDS011;26336;44.696;10.622;2023-07-31T16:35:07;4.57;;;1.83;;
40637;SDS011;26336;44.696;10.622;2023-07-31T16:38:12;4.03;;;2.05;;
40637;SDS011;26336;44.696;10.622;2023-07-31T16:41:16;2.10;;;1.90;;
40637;SDS011;26336;44.696;10.622;2023-07-31T16:44:20;2.38;;;2.10;;
40637;SDS011;26336;44.696;10.622;2023-07-31T16:47:24;3.88;;;2.20;;
40637;SDS011;26336;44.696;10.622;2023-07-31T16:50:28;2.47;;;1.95;;
40637;SDS011;26336;44.696;10.622;2023-07-31T16:53:32;5.25;;;2.08;;
40637;SDS011;26336;44.696;10.622;2023-07-31T16:56:36;2.75;;;2.20;;
40637;SDS011;26336;44.696;10.622;2023-07-31T16:59:40;3.20;;;2.17;;
40637;SDS011;26336;44.696;10.622;2023-07-31T17:02:44;2.92;;;2.00;;
40637;SDS011;26336;44.696;10.622;2023-07-31T17:05:48;3.53;;;2.15;;
40637;SDS011;26336;44.696;10.622;2023-07-31T17:08:52;3.70;;;1.98;;
40637;SDS011;26336;44.696;10.622;2023-07-31T17:11:56;2.88;;;2.03;;
40637;SDS011;26336;44.696;10.622;2023-07-31T17:15:00;3.38;;;2.20;;
40637;SDS011;26336;44.696;10.622;2023-07-31T17:18:04;4.82;;;2.45;;
40637;SDS011;26336;44.696;10.622;2023-07-31T17:21:08;2.78;;;2.42;;
40637;SDS011;26336;44.696;10.622;2023-07-31T17:24:13;5.65;;;2.45;;
40637;SDS011;26336;44.696;10.622;2023-07-31T17:27:16;2.15;;;1.83;;
40637;SDS011;26336;44.696;10.622;2023-07-31T17:30:20;3.78;;;2.40;;
40637;SDS011;26336;44.696;10.622;2023-07-31T17:33:24;4.13;;;3.00;;
40637;SDS011;26336;44.696;10.622;2023-07-31T17:36:28;4.25;;;3.25;;
40637;SDS011;26336;44.696;10.622;2023-07-31T17:39:38;4.00;;;2.70;;
40637;SDS011;26336;44.696;10.622;2023-07-31T17:42:42;4.55;;;2.55;;
40637;SDS011;26336;44.696;10.622;2023-07-31T17:45:46;4.68;;;2.90;;
40637;SDS011;26336;44.696;10.622;2023-07-31T17:48:50;3.35;;;2.55;;
40637;SDS011;26336;44.696;10.622;2023-07-31T17:51:54;4.72;;;2.67;;
40637;SDS011;26336;44.696;10.622;2023-07-31T17:54:59;3.50;;;2.53;;
40637;SDS011;26336;44.696;10.622;2023-07-31T17:58:03;2.63;;;2.42;;
40637;SDS011;26336;44.696;10.622;2023-07-31T18:01:08;4.00;;;2.53;;
40637;SDS011;26336;44.696;10.622;2023-07-31T18:04:14;4.68;;;2.55;;
40637;SDS011;26336;44.696;10.622;2023-07-31T18:07:19;3.35;;;2.65;;
40637;SDS011;26336;44.696;10.622;2023-07-31T18:10:48;3.30;;;3.00;;
40637;SDS011;26336;44.696;10.622;2023-07-31T18:13:52;3.47;;;3.13;;
40637;SDS011;26336;44.696;10.622;2023-07-31T18:16:56;3.85;;;2.65;;
40637;SDS011;26336;44.696;10.622;2023-07-31T18:20:01;4.57;;;2.83;;
40637;SDS011;26336;44.696;10.622;2023-07-31T18:23:08;3.42;;;2.80;;
40637;SDS011;26336;44.696;10.622;2023-07-31T18:26:44;4.65;;;3.33;;